• Join FlightAware (Why Join?)
  • Login
  • US Flag 
10:20AM EDT


 

Airport Tracker/Info


-or-


 

Live Flight TrackerFlight Track Log ✈ SET369 ✈ 24-Apr-2013 ✈ RJGG / NGO - RJSS / SDJ

Flight Track Log - Related Links

Times and Time Zones

All times are in EDT time to prevent confusion due to time zone crossing. See the SET369 flight status page for this flight to view local times or setup timezone preferences in your user account.

Time Position Orientation Groundspeed Altitude Reporting Facility
EDT Latitude Longitude Course Direction KTS MPH feet Rate Location/Type
07:07AM 35.1156 137.1094 44° Northeast  Level Estimated
07:08AM 35.2011 137.2112 44° Northeast  Level Estimated
07:09AM 35.2866 137.3132 44° Northeast  Level Estimated
07:10AM 35.3720 137.4154 44° Northeast  Level Estimated
07:11AM 35.4573 137.5179 44° Northeast  Level Estimated
07:12AM 35.5425 137.6205 44° Northeast  Level Estimated
07:13AM 35.6277 137.7234 44° Northeast  Level Estimated
07:14AM 35.7127 137.8265 45° Northeast  Level Estimated
07:15AM 35.7977 137.9298 45° Northeast  Level Estimated
07:16AM 35.8826 138.0334 45° Northeast  Level Estimated
07:17AM 35.9674 138.1371 45° Northeast  Level Estimated
07:18AM 36.0521 138.2411 45° Northeast  Level Estimated
07:19AM 36.1367 138.3453 45° Northeast  Level Estimated
07:20AM 36.2212 138.4498 45° Northeast  Level Estimated
07:21AM 36.3056 138.5544 45° Northeast  Level Estimated
07:22AM 36.3900 138.6593 45° Northeast  Level Estimated
07:23AM 36.4742 138.7644 45° Northeast  Level Estimated
07:24AM 36.5583 138.8698 45° Northeast  Level Estimated
07:25AM 36.6424 138.9753 45° Northeast  Level Estimated
07:26AM 36.7264 139.0811 45° Northeast  Level Estimated
07:27AM 36.8102 139.1871 45° Northeast  Level Estimated
07:28AM 36.8940 139.2934 45° Northeast  Level Estimated
07:29AM 36.9777 139.3999 45° Northeast  Level Estimated
07:30AM 37.0613 139.5067 46° Northeast  Level Estimated
07:31AM 37.1448 139.6136 46° Northeast  Level Estimated
07:32AM 37.2282 139.7208 46° Northeast  Level Estimated
07:33AM 37.3115 139.8283 46° Northeast  Level Estimated
07:34AM 37.3947 139.9359 46° Northeast  Level Estimated
07:35AM 37.4778 140.0439 46° Northeast  Level Estimated
07:36AM 37.5608 140.1520 46° Northeast  Level Estimated
07:37AM 37.6437 140.2604 46° Northeast  Level Estimated
07:38AM 37.7265 140.3691 46° Northeast  Level Estimated
07:39AM 37.8092 140.4780 46° Northeast  Level Estimated
07:40AM 37.8918 140.5871 46° Northeast  Level Estimated
07:41AM 37.9743 140.6965 46° Northeast  Level Estimated
07:42AM 38.0567 140.8061 46° Northeast  Level Estimated
07:43AM 38.1390 140.9159 46° Northeast  Level Estimated
07:44AM 38.1397 140.9169 46° Northeast  Level Estimated
07:45AM 38.1397 140.9169 58° Northeast  Level Estimated
07:46AM 38.1397 140.9169 58° Northeast  Level Estimated
07:47AM 38.1397 140.9169 58° Northeast  Level Estimated
07:48AM 38.1397 140.9169 58° Northeast  Level Estimated
07:49AM 38.1397 140.9169 58° Northeast  Level Estimated
07:50AM 38.1397 140.9169 58° Northeast  Level Estimated
07:51AM 38.1397 140.9169 58° Northeast  Level Estimated
07:52AM 38.1397 140.9169 58° Northeast  Level Estimated
07:53AM 38.1397 140.9169 58° Northeast  Level Estimated
07:54AM 38.1397 140.9169 58° Northeast  Level Estimated
07:55AM 38.1397 140.9169 58° Northeast  Level Estimated
07:56AM 38.1397 140.9169 58° Northeast  Level Estimated
07:57AM 38.1397 140.9169 58° Northeast  Level Estimated
07:58AM 38.1397 140.9169 58° Northeast  Level Estimated
07:59AM 38.1397 140.9169 58° Northeast  Level Estimated